Kissimmee, FL

2:09 PM EDT on March 23, 2017 (GMT -0400)
Toho_Kissimmee, FL | | Change Station
Active Advisory: Lake Wind Advisory

Elev 72 ft 28.30 °N, 81.42 °W | Updated 1 minute ago

Mostly Cloudy
Mostly Cloudy
81.7 °F
Feels Like 84 °F
N
6.0
Wind Variable Wind from ESE

Today
High -- | Low -- °F
--% Chance of Precip.
Yesterday
High -- | Low -- °F
Precip. -- in
Pressure 30.27 in
Visibility 10.0 miles
Clouds Few 7000 ft
Mostly Cloudy 11000 ft
Heat Index 84 °F
Dew Point 66 °F
Humidity 60%
Rainfall 0.00 in
Snow Depth Not available.
7:25 AM 7:38 PM
Waning Crescent, 21% visible
METAR KISM 231756Z 08013KT 10SM FEW070 BKN110 26/17 A3026 RMK AO2 SLP248 T02560167 10261 20194 58004
Pressure 30.27 in
Visibility 10.0 miles
Clouds Few 7000 ft
Mostly Cloudy 11000 ft
Heat Index 84 °F
Dew Point 66 °F
Humidity 60%
Rainfall 0.00 in
Snow Depth Not available.
7:25 AM 7:38 PM
Waning Crescent, 21% visible
METAR KISM 231756Z 08013KT 10SM FEW070 BKN110 26/17 A3026 RMK AO2 SLP248 T02560167 10261 20194 58004

Get Your Daily Forecast Email!

Thanks for signing up!

Be on the lookout for a verification email in your inbox.

You'll start receiving severe weather alerts in your inbox..

×

10-Day Weather Forecast

Almanac

Astronomy

Mar. 23, 2017 Rise Set
Actual Time
Civil Twilight
Nautical Twilight
Astronomical Twilight
Moon
Length of Visible Light
Length of Day
Tomorrow will be .
, % of the Moon is Illuminated

Today's Extremes

State Highs State Lows

Community

WunderPhotos

Upload Photos

1,962,540 photos uploaded!

WunderBlog® & News

Nearby

Air Quality

  Air Quality AQ Index Pollutant
Not available.

Snow Depth

Station Depth Elevation

Earthquake Activity

City Distance Mag. Time & Date
Minimum magnitude displayed is 2.5.

Earthquake Activity

City Distance Mag. Time & Date
Minimum magnitude displayed is 2.5.

Coastal Water Temperatures

Place Temperature

Stations

Nearby Weather Stations

Station Location Temp. Windchill Dew Point Humidity Wind Precip. Elev Updated Type
                   

Watches & Warnings

Lake Wind Advisory
Issued: 4:18 AM EDT Mar. 23, 2017 – National Weather Service

... Lake Wind Advisory in effect from noon today to 8 PM EDT this
evening...

The National Weather Service in Melbourne has issued a lake Wind
Advisory, which is in effect from noon today to 8 PM EDT this
evening.

* Winds... northeast winds will increase to 20 mph and gusty this
afternoon. Wind gusts up to 30 mph are expected.

* Impacts... bodies of water will be rough in open areas and
boating conditions will be hazardous.

Precautionary/preparedness actions...

A lake Wind Advisory indicates that winds will cause rough chop
on area lakes. Small boats will be especially prone to capsizing.



15